sensor_id;sensor_type;location;lat;lon;timestamp;temperature;humidity
34522;DHT22;25561;48.888;8.736;2022-08-11T05:33:44;18.40;99.90
34522;DHT22;25561;48.888;8.736;2022-08-11T05:37:12;18.70;99.90
34522;DHT22;25561;48.888;8.736;2022-08-11T05:40:29;19.20;99.90
34522;DHT22;25561;48.888;8.736;2022-08-11T05:44:02;19.70;99.90
34522;DHT22;25561;48.888;8.736;2022-08-11T05:47:25;20.30;99.90
34522;DHT22;25561;48.888;8.736;2022-08-11T05:50:53;21.80;98.20
34522;DHT22;25561;48.888;8.736;2022-08-11T05:54:17;23.00;95.50
34522;DHT22;25561;48.888;8.736;2022-08-11T05:57:39;24.40;90.30
34522;DHT22;25561;48.888;8.736;2022-08-11T06:00:52;25.40;81.90
34522;DHT22;25561;48.888;8.736;2022-08-11T06:03:57;26.40;77.30
34522;DHT22;25561;48.888;8.736;2022-08-11T06:07:26;26.80;73.20
34522;DHT22;25561;48.888;8.736;2022-08-11T06:10:33;27.70;71.70
34522;DHT22;25561;48.888;8.736;2022-08-11T06:49:36;29.10;58.10
34522;DHT22;25561;48.888;8.736;2022-08-11T06:52:58;29.30;59.10
34522;DHT22;25561;48.888;8.736;2022-08-11T06:56:00;31.20;57.50
34522;DHT22;25561;48.888;8.736;2022-08-11T06:59:23;32.30;56.50
34522;DHT22;25561;48.888;8.736;2022-08-11T07:02:52;32.70;54.50
34522;DHT22;25561;48.888;8.736;2022-08-11T07:06:02;32.10;54.60
34522;DHT22;25561;48.888;8.736;2022-08-11T07:09:15;31.30;54.70
34522;DHT22;25561;48.888;8.736;2022-08-11T07:12:44;31.30;54.80
34522;DHT22;25561;48.888;8.736;2022-08-11T07:16:09;31.20;55.00
34522;DHT22;25561;48.888;8.736;2022-08-11T07:19:20;31.70;55.00
34522;DHT22;25561;48.888;8.736;2022-08-11T07:22:56;32.60;54.30
34522;DHT22;25561;48.888;8.736;2022-08-11T07:26:21;33.60;52.70
34522;DHT22;25561;48.888;8.736;2022-08-11T07:29:46;33.50;52.40
34522;DHT22;25561;48.888;8.736;2022-08-11T07:32:51;33.70;51.50
34522;DHT22;25561;48.888;8.736;2022-08-11T07:35:56;33.90;51.30
34522;DHT22;25561;48.888;8.736;2022-08-11T07:38:59;33.90;51.20
34522;DHT22;25561;48.888;8.736;2022-08-11T07:42:06;34.10;51.00
34522;DHT22;25561;48.888;8.736;2022-08-11T07:45:09;34.10;50.90
34522;DHT22;25561;48.888;8.736;2022-08-11T07:48:32;34.10;50.70
34522;DHT22;25561;48.888;8.736;2022-08-11T07:51:55;34.10;50.50
34522;DHT22;25561;48.888;8.736;2022-08-11T07:55:17;32.20;51.60
34522;DHT22;25561;48.888;8.736;2022-08-11T07:58:41;30.30;53.60
34522;DHT22;25561;48.888;8.736;2022-08-11T08:02:10;29.50;55.40
34522;DHT22;25561;48.888;8.736;2022-08-11T08:05:32;29.90;55.30
34522;DHT22;25561;48.888;8.736;2022-08-11T08:08:55;30.70;53.60
34522;DHT22;25561;48.888;8.736;2022-08-11T08:12:21;31.20;53.40
34522;DHT22;25561;48.888;8.736;2022-08-11T08:15:44;31.60;53.00
34522;DHT22;25561;48.888;8.736;2022-08-11T08:19:06;32.00;52.40
34522;DHT22;25561;48.888;8.736;2022-08-11T08:22:08;32.70;52.60
34522;DHT22;25561;48.888;8.736;2022-08-11T08:25:33;33.90;51.40
34522;DHT22;25561;48.888;8.736;2022-08-11T08:28:35;34.90;49.90
34522;DHT22;25561;48.888;8.736;2022-08-11T08:31:37;34.60;49.70
34522;DHT22;25561;48.888;8.736;2022-08-11T08:34:40;34.90;48.80
34522;DHT22;25561;48.888;8.736;2022-08-11T08:37:42;34.30;49.70
34522;DHT22;25561;48.888;8.736;2022-08-11T08:40:51;33.70;51.10
34522;DHT22;25561;48.888;8.736;2022-08-11T08:44:02;34.30;49.70
34522;DHT22;25561;48.888;8.736;2022-08-11T08:47:25;33.90;49.90
34522;DHT22;25561;48.888;8.736;2022-08-11T08:50:49;33.60;50.90
34522;DHT22;25561;48.888;8.736;2022-08-11T08:54:19;33.30;50.70
34522;DHT22;25561;48.888;8.736;2022-08-11T08:57:22;32.20;51.60
34522;DHT22;25561;48.888;8.736;2022-08-11T09:00:24;32.60;52.20
34522;DHT22;25561;48.888;8.736;2022-08-11T09:03:39;33.10;51.00
34522;DHT22;25561;48.888;8.736;2022-08-11T09:07:07;33.70;50.20
34522;DHT22;25561;48.888;8.736;2022-08-11T09:10:13;33.20;50.80
34522;DHT22;25561;48.888;8.736;2022-08-11T09:13:18;33.50;51.00
34522;DHT22;25561;48.888;8.736;2022-08-11T09:16:21;33.50;50.40
34522;DHT22;25561;48.888;8.736;2022-08-11T09:19:25;33.80;50.30
34522;DHT22;25561;48.888;8.736;2022-08-11T09:22:29;34.10;49.60
34522;DHT22;25561;48.888;8.736;2022-08-11T09:26:11;33.00;49.80
34522;DHT22;25561;48.888;8.736;2022-08-11T09:29:34;31.80;52.20
34522;DHT22;25561;48.888;8.736;2022-08-11T09:32:38;32.90;50.90
34522;DHT22;25561;48.888;8.736;2022-08-11T09:35:41;32.70;50.20
34522;DHT22;25561;48.888;8.736;2022-08-11T09:38:47;32.10;50.50
34522;DHT22;25561;48.888;8.736;2022-08-11T09:42:11;33.20;49.80
34522;DHT22;25561;48.888;8.736;2022-08-11T09:45:17;33.50;49.30
34522;DHT22;25561;48.888;8.736;2022-08-11T09:48:22;34.90;48.50
34522;DHT22;25561;48.888;8.736;2022-08-11T09:51:25;34.40;46.10
34522;DHT22;25561;48.888;8.736;2022-08-11T09:54:30;34.30;47.00
34522;DHT22;25561;48.888;8.736;2022-08-11T09:57:32;34.50;45.80
34522;DHT22;25561;48.888;8.736;2022-08-11T10:00:56;33.50;45.30
34522;DHT22;25561;48.888;8.736;2022-08-11T10:04:07;33.50;45.60
34522;DHT22;25561;48.888;8.736;2022-08-11T10:07:12;33.00;45.00
34522;DHT22;25561;48.888;8.736;2022-08-11T10:10:17;32.60;46.30
34522;DHT22;25561;48.888;8.736;2022-08-11T10:13:29;32.70;46.10
34522;DHT22;25561;48.888;8.736;2022-08-11T10:16:54;33.40;46.00
34522;DHT22;25561;48.888;8.736;2022-08-11T10:19:57;33.30;46.70
34522;DHT22;25561;48.888;8.736;2022-08-11T10:23:07;33.00;47.20
34522;DHT22;25561;48.888;8.736;2022-08-11T10:26:31;33.00;47.00
34522;DHT22;25561;48.888;8.736;2022-08-11T10:29:54;31.30;48.70
34522;DHT22;25561;48.888;8.736;2022-08-11T10:33:18;30.70;50.40
34522;DHT22;25561;48.888;8.736;2022-08-11T10:36:59;31.00;49.90
34522;DHT22;25561;48.888;8.736;2022-08-11T10:40:04;31.50;49.10
34522;DHT22;25561;48.888;8.736;2022-08-11T10:43:08;31.70;48.60
34522;DHT22;25561;48.888;8.736;2022-08-11T10:46:15;32.10;48.40
34522;DHT22;25561;48.888;8.736;2022-08-11T10:49:36;32.40;47.10
34522;DHT22;25561;48.888;8.736;2022-08-11T10:52:39;32.10;47.00
34522;DHT22;25561;48.888;8.736;2022-08-11T10:56:02;31.70;47.80
34522;DHT22;25561;48.888;8.736;2022-08-11T10:59:27;31.70;47.60
34522;DHT22;25561;48.888;8.736;2022-08-11T11:02:29;32.30;46.90
34522;DHT22;25561;48.888;8.736;2022-08-11T11:05:31;32.00;46.70
34522;DHT22;25561;48.888;8.736;2022-08-11T11:08:37;31.90;47.00
34522;DHT22;25561;48.888;8.736;2022-08-11T11:12:24;31.70;47.30
34522;DHT22;25561;48.888;8.736;2022-08-11T11:15:47;31.50;47.60
34522;DHT22;25561;48.888;8.736;2022-08-11T11:19:10;32.10;47.10
34522;DHT22;25561;48.888;8.736;2022-08-11T11:22:14;32.40;46.70
34522;DHT22;25561;48.888;8.736;2022-08-11T11:29:35;32.50;46.70
34522;DHT22;25561;48.888;8.736;2022-08-11T11:36:17;31.70;46.90
34522;DHT22;25561;48.888;8.736;2022-08-11T11:39:25;32.40;46.40
34522;DHT22;25561;48.888;8.736;2022-08-11T11:42:28;32.40;45.70
34522;DHT22;25561;48.888;8.736;2022-08-11T11:45:31;32.50;45.80
34522;DHT22;25561;48.888;8.736;2022-08-11T11:48:33;30.40;47.80
34522;DHT22;25561;48.888;8.736;2022-08-11T11:51:36;29.50;49.20
34522;DHT22;25561;48.888;8.736;2022-08-11T11:54:38;29.20;49.30
34522;DHT22;25561;48.888;8.736;2022-08-11T11:57:41;29.40;48.70
34522;DHT22;25561;48.888;8.736;2022-08-11T12:01:03;29.00;48.90
34522;DHT22;25561;48.888;8.736;2022-08-11T12:04:25;28.60;49.70
34522;DHT22;25561;48.888;8.736;2022-08-11T12:07:28;28.50;50.10
34522;DHT22;25561;48.888;8.736;2022-08-11T12:11:10;28.60;49.70
34522;DHT22;25561;48.888;8.736;2022-08-11T12:14:32;28.60;50.40
34522;DHT22;25561;48.888;8.736;2022-08-11T12:17:35;28.40;50.20
34522;DHT22;25561;48.888;8.736;2022-08-11T12:20:37;28.60;50.50
34522;DHT22;25561;48.888;8.736;2022-08-11T12:23:41;29.00;49.70
34522;DHT22;25561;48.888;8.736;2022-08-11T12:27:05;29.10;49.50
34522;DHT22;25561;48.888;8.736;2022-08-11T12:30:26;29.10;49.10
34522;DHT22;25561;48.888;8.736;2022-08-11T12:33:28;28.80;50.10
34522;DHT22;25561;48.888;8.736;2022-08-11T12:36:35;28.80;49.80
34522;DHT22;25561;48.888;8.736;2022-08-11T12:39:41;28.70;49.50
34522;DHT22;25561;48.888;8.736;2022-08-11T12:43:28;28.60;50.00
34522;DHT22;25561;48.888;8.736;2022-08-11T12:46:58;28.70;49.50
34522;DHT22;25561;48.888;8.736;2022-08-11T12:50:01;28.50;49.80
34522;DHT22;25561;48.888;8.736;2022-08-11T12:53:27;28.80;49.70
34522;DHT22;25561;48.888;8.736;2022-08-11T12:56:49;28.70;49.20
34522;DHT22;25561;48.888;8.736;2022-08-11T13:00:26;28.90;48.80
34522;DHT22;25561;48.888;8.736;2022-08-11T13:03:48;29.00;48.40
34522;DHT22;25561;48.888;8.736;2022-08-11T13:07:11;29.00;48.30
34522;DHT22;25561;48.888;8.736;2022-08-11T13:10:16;28.80;48.30
34522;DHT22;25561;48.888;8.736;2022-08-11T13:13:40;28.70;47.60
34522;DHT22;25561;48.888;8.736;2022-08-11T13:16:57;28.60;48.50
34522;DHT22;25561;48.888;8.736;2022-08-11T13:20:21;28.70;48.60
34522;DHT22;25561;48.888;8.736;2022-08-11T13:23:23;28.90;48.50
34522;DHT22;25561;48.888;8.736;2022-08-11T13:26:26;29.10;48.10
34522;DHT22;25561;48.888;8.736;2022-08-11T13:29:49;28.80;48.40
34522;DHT22;25561;48.888;8.736;2022-08-11T13:33:12;28.80;48.00
34522;DHT22;25561;48.888;8.736;2022-08-11T13:36:21;28.70;48.30
34522;DHT22;25561;48.888;8.736;2022-08-11T13:39:28;28.70;48.00
34522;DHT22;25561;48.888;8.736;2022-08-11T13:42:31;28.90;48.00
34522;DHT22;25561;48.888;8.736;2022-08-11T13:45:33;28.70;48.60
34522;DHT22;25561;48.888;8.736;2022-08-11T13:48:36;28.80;48.60
34522;DHT22;25561;48.888;8.736;2022-08-11T13:51:38;29.00;48.40
34522;DHT22;25561;48.888;8.736;2022-08-11T13:54:42;28.90;48.30
34522;DHT22;25561;48.888;8.736;2022-08-11T13:57:44;28.90;48.30
34522;DHT22;25561;48.888;8.736;2022-08-11T14:01:06;29.10;46.80
34522;DHT22;25561;48.888;8.736;2022-08-11T14:04:40;28.90;47.70
34522;DHT22;25561;48.888;8.736;2022-08-11T14:07:54;29.00;47.20
34522;DHT22;25561;48.888;8.736;2022-08-11T14:11:01;28.80;47.40
34522;DHT22;25561;48.888;8.736;2022-08-11T14:14:47;28.60;47.40
34522;DHT22;25561;48.888;8.736;2022-08-11T14:17:54;28.70;47.70
34522;DHT22;25561;48.888;8.736;2022-08-11T14:20:59;28.90;48.10
34522;DHT22;25561;48.888;8.736;2022-08-11T14:24:22;29.10;47.20
34522;DHT22;25561;48.888;8.736;2022-08-11T14:27:24;29.20;46.90
34522;DHT22;25561;48.888;8.736;2022-08-11T14:30:52;29.10;46.20
34522;DHT22;25561;48.888;8.736;2022-08-11T14:34:04;28.60;47.20
34522;DHT22;25561;48.888;8.736;2022-08-11T14:37:13;28.70;47.70
34522;DHT22;25561;48.888;8.736;2022-08-11T14:40:15;29.10;47.10
34522;DHT22;25561;48.888;8.736;2022-08-11T14:43:38;29.10;46.60
34522;DHT22;25561;48.888;8.736;2022-08-11T14:47:16;29.40;46.60
34522;DHT22;25561;48.888;8.736;2022-08-11T14:50:27;29.20;45.70
34522;DHT22;25561;48.888;8.736;2022-08-11T14:53:29;29.10;45.90
34522;DHT22;25561;48.888;8.736;2022-08-11T14:56:32;29.10;46.00
34522;DHT22;25561;48.888;8.736;2022-08-11T14:59:37;28.80;46.60
34522;DHT22;25561;48.888;8.736;2022-08-11T15:02:40;28.80;46.50
34522;DHT22;25561;48.888;8.736;2022-08-11T15:06:03;28.70;46.60
34522;DHT22;25561;48.888;8.736;2022-08-11T15:09:05;28.90;46.20
34522;DHT22;25561;48.888;8.736;2022-08-11T15:12:11;28.90;45.60
34522;DHT22;25561;48.888;8.736;2022-08-11T15:15:33;28.90;45.80
34522;DHT22;25561;48.888;8.736;2022-08-11T15:18:56;29.00;45.60
34522;DHT22;25561;48.888;8.736;2022-08-11T15:21:58;29.10;45.90
34522;DHT22;25561;48.888;8.736;2022-08-11T15:25:23;29.00;46.00
34522;DHT22;25561;48.888;8.736;2022-08-11T15:28:27;29.10;46.10
34522;DHT22;25561;48.888;8.736;2022-08-11T15:31:50;29.00;46.10
34522;DHT22;25561;48.888;8.736;2022-08-11T15:35:11;28.80;45.90
34522;DHT22;25561;48.888;8.736;2022-08-11T15:38:48;28.70;46.40
34522;DHT22;25561;48.888;8.736;2022-08-11T15:42:07;28.90;46.20
34522;DHT22;25561;48.888;8.736;2022-08-11T15:45:32;28.80;46.10
34522;DHT22;25561;48.888;8.736;2022-08-11T15:48:58;28.70;46.10
34522;DHT22;25561;48.888;8.736;2022-08-11T15:52:08;28.80;46.20
34522;DHT22;25561;48.888;8.736;2022-08-11T15:55:10;28.80;45.70
34522;DHT22;25561;48.888;8.736;2022-08-11T15:58:13;29.00;45.60
